Nearby METAR Reports

 

KHCR - Heber/Russ Mcdon, Utah, USA
Distance from station: SSW 18mi, 29km
Updated: Thu, 02-Jul-2020 12:10pm MDT
Clear
Clear
 Wind from SW
Wind: SW 18 mph , 30 km/h, Gust: 24 mph , 39 km/h
Temperature: 81°F , 27°C
Dew Point: 30°F , -1°C
Humidity: 16%
Barometer: 30.08 inHg , 1018.6 hPa
Clouds: Clear
Visibility: 10 miles , 16 km
2020/07/02 18:10 KHCR 021810Z AUTO 22016G21KT 10SM CLR 27/M01 A3008 RMK AO2
KSLC - Salt Lake City, Utah, USA
Distance from station: W 35mi, 57km
Updated: Thu, 02-Jul-2020 11:54am MDT
Few Clouds
Few Clouds
 Wind from SSE
Wind: SSE 20 mph , 31 km/h, Gust: 28 mph , 44 km/h
Temperature: 84°F , 29°C
Dew Point: 36°F , 2°C
Humidity: 18%
Barometer: 29.97 inHg , 1014.9 hPa
Clouds: Few Clouds
Visibility: 10 miles , 16 km
Cloud details: Few Clouds 9000 ft
Few Clouds 14000 ft
2020/07/02 17:54 KSLC 021754Z 15017G24KT 10SM FEW090 FEW140 29/02 A2997 RMK AO2 SLP089 T02940022 10300 20156 58002
 
KU42 - Salt Lake Muni, Utah, USA
Distance from station: WSW 37mi, 59km
Updated: Thu, 02-Jul-2020 12:15pm MDT
Clear
Clear
 Wind from SE
Wind: SE 12 mph , 19 km/h, Gust: 20 mph , 31 km/h
Temperature: 84°F , 29°C
Dew Point: 41°F , 5°C
Humidity: 22%
Barometer: 30.02 inHg , 1016.6 hPa
Clouds: Clear
Visibility: 10 miles , 16 km
2020/07/02 18:15 KU42 021815Z AUTO 14010G17KT 10SM CLR 29/05 A3002 RMK AO1 T02920048
KEVW - Evanston, Wyoming, USA
Distance from station: NNE 40mi, 64km
Updated: Thu, 02-Jul-2020 11:53am MDT
Clear
Clear
 Wind from SW
Wind: SW 15 mph , 24 km/h, Gust: 25 mph , 41 km/h
Temperature: 73°F , 23°C
Dew Point: 34°F , 1°C
Humidity: 23%
Barometer: 30.17 inHg , 1021.7 hPa
Clouds: Clear
Visibility: 10 miles , 16 km
2020/07/02 17:53 KEVW 021753Z AUTO 23013G22KT 10SM CLR 23/01 A3017 RMK AO2 SLP120 T02280006 10228 20100 50002 $
 
KPVU - Provo Muni, Utah, USA
Distance from station: SSW 41mi, 67km
Updated: Thu, 02-Jul-2020 11:56am MDT
Few Clouds
Few Clouds
 Wind from WSW
Wind: WSW 8 mph , 13 km/h
Temperature: 84°F , 29°C
Dew Point: 43°F , 6°C
Humidity: 23%
Barometer: 30.03 inHg , 1016.9 hPa
Clouds: Few Clouds
Visibility: 10 miles , 16 km
Cloud details: Few Clouds 11000 ft
2020/07/02 17:56 KPVU 021756Z 24007KT 10SM FEW110 29/06 A3003 RMK AO2 SLP108 T02890056 10294 20133 50002
KHIF - Hill Afb/Ogden, Utah, USA
Distance from station: NW 45mi, 72km
Updated: Thu, 02-Jul-2020 11:58am MDT
Clear
Clear
 Wind from SSW
Wind: SSW 5 mph , 7 km/h
Temperature: 77°F , 25°C
Dew Point: 43°F , 6°C
Humidity: 30%
Barometer: 30.04 inHg , 1017.3 hPa
Clouds: Clear
Visibility: 10 miles , 16 km
2020/07/02 17:58 KHIF 021758Z AUTO 21004KT 10SM CLR 25/06 A3004 RMK AO2 SLP114 T02460063 10246 20139 50006
 
KOGD - Ogden, Utah, USA
Distance from station: NW 50mi, 81km
Updated: Thu, 02-Jul-2020 11:53am MDT
Clear
Clear
 Wind from varies
Wind: varies 5 mph , 7 km/h
Temperature: 81°F , 27°C
Dew Point: 41°F , 5°C
Humidity: 24%
Barometer: 30.02 inHg , 1016.6 hPa
Clouds: Clear
Visibility: 10 miles , 16 km
2020/07/02 17:53 KOGD 021753Z VRB04KT 10SM CLR 27/05 A3002 RMK AO2 SLP106 T02670050 10272 20144 50006